createdAt,value
2018-12-07T00:03:47.558Z,13.5
2018-12-07T00:09:10.197Z,13.7
2018-12-07T00:14:33.073Z,13.7
2018-12-07T00:19:56.052Z,12.2
2018-12-07T00:25:18.986Z,13.6
2018-12-07T00:30:42.756Z,13.8
2018-12-07T00:36:05.407Z,14
2018-12-07T00:41:28.930Z,14.3
2018-12-07T00:46:51.706Z,14.1
2018-12-07T00:52:14.707Z,13.8
2018-12-07T00:57:37.591Z,13.3
2018-12-07T01:03:00.178Z,14.1
2018-12-07T01:08:23.673Z,13.1
2018-12-07T01:13:46.321Z,12.5
2018-12-07T01:19:09.004Z,13.4
2018-12-07T01:24:31.690Z,13
2018-12-07T01:29:55.269Z,12.7
2018-12-07T01:35:18.008Z,12.2
2018-12-07T01:40:40.742Z,12.9
2018-12-07T01:46:03.403Z,13
2018-12-07T01:51:26.034Z,11.9
2018-12-07T01:56:49.058Z,11.9
2018-12-07T02:02:11.935Z,11.6
2018-12-07T02:07:34.915Z,11.7
2018-12-07T02:12:58.166Z,12
2018-12-07T02:18:20.872Z,10.3
2018-12-07T02:23:43.572Z,11.1
2018-12-07T02:29:06.404Z,10.5
2018-12-07T02:34:29.339Z,9.7
2018-12-07T02:39:52.326Z,10.4
2018-12-07T02:45:15.081Z,10.3
2018-12-07T02:50:37.860Z,10.3
2018-12-07T02:56:01.629Z,10.4
2018-12-07T03:01:24.861Z,10.4
2018-12-07T03:06:47.922Z,9.3
2018-12-07T03:12:10.819Z,9.8
2018-12-07T03:17:33.827Z,10.4
2018-12-07T03:22:56.460Z,10.1
2018-12-07T03:28:19.137Z,10
2018-12-07T03:33:42.088Z,10.3
2018-12-07T03:39:04.741Z,10.4
2018-12-07T03:44:27.539Z,9.7
2018-12-07T03:49:50.157Z,9.8
2018-12-07T03:55:13.034Z,10.3
2018-12-07T04:00:36.039Z,9.8
2018-12-07T04:05:58.685Z,9.2
2018-12-07T04:11:21.566Z,9.4
2018-12-07T04:16:44.885Z,9.1
2018-12-07T04:22:07.597Z,9
2018-12-07T04:27:30.488Z,8.7
2018-12-07T04:32:53.394Z,8.4
2018-12-07T04:38:16.094Z,8.6
2018-12-07T04:43:38.822Z,8
2018-12-07T04:49:01.768Z,8
2018-12-07T04:54:24.561Z,7.8
2018-12-07T04:59:47.316Z,7.5
2018-12-07T05:05:11.160Z,7.5
2018-12-07T05:10:34.240Z,7.1
2018-12-07T05:15:56.980Z,6.3
2018-12-07T05:21:20.065Z,6.8
2018-12-07T05:26:42.674Z,6.8
2018-12-07T05:32:05.463Z,6.2
2018-12-07T05:37:28.158Z,6.4
2018-12-07T05:42:51.319Z,6.3
2018-12-07T05:48:14.244Z,5.9
2018-12-07T05:53:36.948Z,6.2
2018-12-07T05:59:08.929Z,5.6
2018-12-07T06:04:42.417Z,5.4
2018-12-07T06:10:05.224Z,6.6
2018-12-07T06:15:28.078Z,6.5
2018-12-07T06:20:50.763Z,6.4
2018-12-07T06:26:13.456Z,7.2
2018-12-07T06:31:36.234Z,7.2
2018-12-07T06:36:59.006Z,7.5
2018-12-07T06:42:21.841Z,8.6
2018-12-07T06:47:44.824Z,8.9
2018-12-07T06:53:18.658Z,8.3
2018-12-07T06:58:41.379Z,8.4
2018-12-07T07:04:14.372Z,8.4
2018-12-07T07:10:11.571Z,9.1
2018-12-07T07:15:44.728Z,10.7
2018-12-07T07:21:17.598Z,10.7
2018-12-07T07:26:50.279Z,11.9
2018-12-07T07:32:24.081Z,11.4
2018-12-07T07:37:47.313Z,12.2
2018-12-07T07:43:19.483Z,11
2018-12-07T07:48:42.114Z,11.6
2018-12-07T07:54:04.838Z,11.6
2018-12-07T07:59:27.508Z,11.8
2018-12-07T08:04:50.287Z,10.7
2018-12-07T08:10:13.435Z,11.2
2018-12-07T08:15:47.406Z,12.3
2018-12-07T08:21:10.034Z,11.7
2018-12-07T08:26:32.877Z,12.4
2018-12-07T08:32:05.560Z,11
2018-12-07T08:37:28.503Z,10.8
2018-12-07T08:43:02.234Z,11.9
2018-12-07T08:48:35.848Z,9.9
2018-12-07T08:54:08.315Z,10.9
2018-12-07T08:59:31.019Z,9.8
2018-12-07T09:05:05.699Z,8.3
2018-12-07T09:10:30.921Z,9.4
2018-12-07T09:16:02.685Z,8.6
2018-12-07T09:21:25.394Z,8.7
2018-12-07T09:26:59.479Z,9
2018-12-07T09:32:58.484Z,7.9
2018-12-07T09:38:30.621Z,6.8
2018-12-07T09:44:03.093Z,5.9
2018-12-07T09:49:26.067Z,6.1
2018-12-07T09:54:50.109Z,5.4
2018-12-07T10:00:23.560Z,5.2
2018-12-07T10:05:55.842Z,5
2018-12-07T10:11:29.499Z,5.1
2018-12-07T10:16:52.832Z,5.7
2018-12-07T10:22:27.106Z,5.3
2018-12-07T10:28:59.419Z,6.1
2018-12-07T10:34:22.502Z,6.1
2018-12-07T10:40:23.405Z,7.6
2018-12-07T10:46:50.204Z,8.8
2018-12-07T10:52:49.948Z,11
2018-12-07T10:58:23.644Z,11.8
2018-12-07T11:03:55.386Z,12.1
2018-12-07T11:09:28.286Z,12.7
2018-12-07T11:15:00.254Z,12.6
2018-12-07T11:20:33.332Z,12.5
2018-12-07T11:26:06.701Z,13.2
2018-12-07T11:31:38.921Z,12.9
2018-12-07T11:37:11.819Z,13.4
2018-12-07T11:42:34.591Z,12.8
2018-12-07T11:47:57.521Z,11.9
2018-12-07T11:53:20.153Z,11.2
2018-12-07T11:58:43.067Z,10.5
2018-12-07T12:04:05.902Z,9.4
2018-12-07T12:09:28.790Z,9.5
2018-12-07T12:14:51.789Z,9.4
2018-12-07T12:20:24.326Z,9.1
2018-12-07T12:25:47.273Z,9.8
2018-12-07T12:31:09.835Z,9.6
2018-12-07T12:36:33.624Z,10.3
2018-12-07T12:41:57.060Z,9
2018-12-07T12:47:19.656Z,8.7
2018-12-07T12:52:42.463Z,6.9
2018-12-07T12:58:05.086Z,6.7
2018-12-07T13:03:27.807Z,5.7
2018-12-07T13:08:50.521Z,5.1
2018-12-07T13:14:14.092Z,5.2
2018-12-07T13:19:36.688Z,5.5
2018-12-07T13:24:59.363Z,4.7
2018-12-07T13:30:22.352Z,4.9
2018-12-07T13:35:44.998Z,4.4
2018-12-07T13:41:08.253Z,4.7
2018-12-07T13:46:32.192Z,4.7
2018-12-07T13:51:54.894Z,3.9
2018-12-07T13:57:17.851Z,3.9
2018-12-07T14:02:40.513Z,3.5
2018-12-07T14:08:03.857Z,3.1
2018-12-07T14:13:26.976Z,3.2
2018-12-07T14:18:49.527Z,3.2
2018-12-07T14:24:12.017Z,2.8
2018-12-07T14:29:34.907Z,2.5
2018-12-07T14:34:57.624Z,2.4
2018-12-07T14:40:20.245Z,2.5
2018-12-07T14:45:43.322Z,2.6
2018-12-07T14:51:05.986Z,2.7
2018-12-07T14:56:31.188Z,3.7
2018-12-07T15:01:53.904Z,4.1
2018-12-07T15:07:16.586Z,4.6
2018-12-07T15:12:39.499Z,5.4
2018-12-07T15:18:02.216Z,5.2
2018-12-07T15:23:25.111Z,5.3
2018-12-07T15:28:48.184Z,6.2
2018-12-07T15:34:21.266Z,6.1
2018-12-07T15:39:53.142Z,6.3
2018-12-07T15:45:25.729Z,6.4
2018-12-07T15:50:48.479Z,5.9
2018-12-07T15:56:11.264Z,5.2
2018-12-07T16:01:33.879Z,4.4
2018-12-07T16:06:56.697Z,4.2
2018-12-07T16:12:19.474Z,3.2
2018-12-07T16:17:42.272Z,3.2
2018-12-07T16:23:05.262Z,2.8
2018-12-07T16:28:27.822Z,3.4
2018-12-07T16:34:00.045Z,2.3
2018-12-07T16:39:32.817Z,2.3
2018-12-07T16:45:05.638Z,2.1
2018-12-07T16:50:37.649Z,1.9
2018-12-07T16:56:10.900Z,2
2018-12-07T17:01:43.606Z,2.1
2018-12-07T17:07:17.808Z,2.3
2018-12-07T17:12:49.720Z,3
2018-12-07T17:18:23.135Z,3.7
2018-12-07T17:23:56.199Z,3.8
2018-12-07T17:29:19.007Z,4.2
2018-12-07T17:34:41.950Z,4.3
2018-12-07T17:40:04.619Z,3.5
2018-12-07T17:45:38.376Z,3.8
2018-12-07T17:51:00.880Z,3.9
2018-12-07T17:56:23.546Z,4.2
2018-12-07T18:02:23.652Z,4.2
2018-12-07T18:07:56.862Z,4.6
2018-12-07T18:13:33.308Z,4.2
2018-12-07T18:19:34.066Z,4.2
2018-12-07T18:25:08.354Z,4.3
2018-12-07T18:30:40.305Z,5
2018-12-07T18:36:03.035Z,4.6
2018-12-07T18:41:26.462Z,0.7
2018-12-07T18:46:49.141Z,0.9
2018-12-07T18:52:11.946Z,0.9
2018-12-07T18:57:34.824Z,1.1
2018-12-07T19:03:08.003Z,1.1
2018-12-07T19:08:40.686Z,1.1
2018-12-07T19:14:14.636Z,1.1
2018-12-07T19:19:37.576Z,1.1
2018-12-07T19:25:00.051Z,1.1
2018-12-07T19:30:22.918Z,0.9
2018-12-07T19:35:46.080Z,1.1
2018-12-07T19:41:08.793Z,1
2018-12-07T19:46:32.737Z,1
2018-12-07T19:51:55.325Z,0.8
2018-12-07T19:57:27.244Z,1.3
2018-12-07T20:02:50.493Z,0.9
2018-12-07T20:08:13.358Z,1
2018-12-07T20:13:46.592Z,1.3
2018-12-07T20:19:10.722Z,0.9
2018-12-07T20:24:33.759Z,0.9
2018-12-07T20:30:07.703Z,1.2
2018-12-07T20:35:58.188Z,1.3
2018-12-07T20:41:21.845Z,1.5
2018-12-07T20:46:44.930Z,1.7
2018-12-07T20:52:07.619Z,1.9
2018-12-07T20:57:30.763Z,1.8
2018-12-07T21:02:53.370Z,1.7
2018-12-07T21:08:16.339Z,1.6
2018-12-07T21:13:39.530Z,1.7
2018-12-07T21:19:02.589Z,1.7
2018-12-07T21:24:25.431Z,1.8
2018-12-07T21:29:48.461Z,2.1
2018-12-07T21:35:11.176Z,2.2
2018-12-07T21:40:34.777Z,2.2
2018-12-07T21:45:57.590Z,2.3
2018-12-07T21:51:20.991Z,2.1
2018-12-07T21:56:43.729Z,2.5
2018-12-07T22:02:06.236Z,2.3
2018-12-07T22:07:29.236Z,2.6
2018-12-07T22:12:52.324Z,2.5
2018-12-07T22:18:15.204Z,3.8
2018-12-07T22:23:37.919Z,3.5
2018-12-07T22:29:00.875Z,3
2018-12-07T22:34:23.360Z,2.2
2018-12-07T22:39:46.126Z,2.8
2018-12-07T22:45:08.828Z,2.8
2018-12-07T22:50:33.486Z,3.5
2018-12-07T22:55:56.241Z,3.6
2018-12-07T23:01:19.568Z,3.2
2018-12-07T23:06:42.332Z,3.6
2018-12-07T23:12:05.198Z,3.5
2018-12-07T23:17:27.881Z,3.7
2018-12-07T23:22:50.522Z,3.9
2018-12-07T23:28:13.458Z,3.1
2018-12-07T23:33:36.116Z,2.4
2018-12-07T23:38:58.816Z,2.5
2018-12-07T23:44:21.477Z,1.8
2018-12-07T23:49:44.286Z,1.7
2018-12-07T23:55:06.999Z,1.8
